Terminal Aerodrome Forecast
Issued by NWS

Home | Current Version | Previous Version | Graphics & Text | Print | Product List | Glossary On
Versions: 1 2 3 4 5 6 7 8 9 10 11 12 13 14 15 16 17
000
FTUS42 KMHX 082326
TAFOAJ
TAF
KOAJ 082326Z 0900/0924 01010KT 3SM RA BR SCT003 OVC006
      TEMPO 0900/0904 01010G20KT
     FM091600 35008KT 6SM -RA OVC007
     FM091800 33009KT P6SM OVC007
      AMD LTD TO CLD VIS AND WIND=

USA.gov is the U.S. government's official web portal to all federal, state and local government web resources and services.